Time;durP1;ratioP1;P1;durP2;ratioP2;P2;SDS_P1;SDS_P2;PMS_P1;PMS_P2;Temp;Humidity;BMP_temperature;BMP_pressure;BME280_temperature;BME280_humidity;BME280_pressure;Samples;Min_cycle;Max_cycle;Signal;HPM_P1;HPM_P2
2022/11/27 00:01:56;;;;;;;0.20;0.20;;;6.30;99.90;;;;;;5028909;28;20191;-83
2022/11/27 00:04:21;;;;;;;0.20;0.20;;;6.30;99.90;;;;;;5029802;28;20200;-83
2022/11/27 00:06:46;;;;;;;0.20;0.20;;;6.30;99.90;;;;;;5029367;28;20200;-82
2022/11/27 00:09:14;;;;;;;0.20;0.20;;;6.30;99.90;;;;;;5032465;28;20195;-83
2022/11/27 00:11:40;;;;;;;0.30;0.30;;;6.30;99.90;;;;;;5024216;28;20227;-82
2022/11/27 00:14:07;;;;;;;0.20;0.20;;;6.30;99.90;;;;;;5034179;28;20457;-82
2022/11/27 00:16:33;;;;;;;0.20;0.20;;;6.30;99.90;;;;;;5029835;28;20723;-83
2022/11/27 00:18:58;;;;;;;0.20;0.20;;;6.30;99.90;;;;;;5042155;28;20537;-83
2022/11/27 00:21:30;;;;;;;0.20;0.20;;;6.30;99.90;;;;;;5000395;28;20187;-82
2022/11/27 00:23:58;;;;;;;0.20;0.20;;;6.30;99.90;;;;;;5027235;28;20215;-83
2022/11/27 00:26:24;;;;;;;0.30;0.30;;;6.30;99.90;;;;;;5010450;28;20448;-83
2022/11/27 00:28:50;;;;;;;0.20;0.20;;;6.20;99.90;;;;;;5027940;28;20439;-84
2022/11/27 00:31:20;;;;;;;0.30;0.30;;;6.30;99.90;;;;;;5014315;28;20962;-83
2022/11/27 00:33:46;;;;;;;0.20;0.20;;;6.30;99.90;;;;;;5046041;28;20218;-83
2022/11/27 00:36:13;;;;;;;0.20;0.20;;;6.30;99.90;;;;;;5033613;28;20492;-83
2022/11/27 00:38:39;;;;;;;0.30;0.30;;;6.20;99.90;;;;;;5030268;28;20449;-83
2022/11/27 00:41:10;;;;;;;0.20;0.20;;;6.30;99.90;;;;;;5024112;28;20492;-83
2022/11/27 00:43:36;;;;;;;0.20;0.20;;;6.30;99.90;;;;;;5028286;28;20454;-82
2022/11/27 00:46:02;;;;;;;0.20;0.20;;;6.20;99.90;;;;;;5027028;28;20453;-83
2022/11/27 00:48:27;;;;;;;0.20;0.20;;;6.30;99.90;;;;;;5030071;28;20897;-83
2022/11/27 00:51:00;;;;;;;0.30;0.30;;;6.30;99.90;;;;;;5027322;28;20206;-82
2022/11/27 00:53:26;;;;;;;0.20;0.20;;;6.30;99.90;;;;;;5022468;28;20609;-82
2022/11/27 00:55:52;;;;;;;0.20;0.20;;;6.30;99.90;;;;;;5023608;28;20446;-82
2022/11/27 00:58:18;;;;;;;0.20;0.20;;;6.30;99.90;;;;;;4999586;28;21001;-83
2022/11/27 01:00:43;;;;;;;0.20;0.20;;;6.30;99.90;;;;;;5027057;28;20442;-83
2022/11/27 01:03:09;;;;;;;0.20;0.20;;;6.30;99.90;;;;;;5028093;28;20198;-83
2022/11/27 01:05:36;;;;;;;0.30;0.30;;;6.20;99.90;;;;;;5034868;28;20199;-82
2022/11/27 01:08:02;;;;;;;0.20;0.20;;;6.30;99.90;;;;;;5029879;28;20237;-83
2022/11/27 01:10:27;;;;;;;0.20;0.20;;;6.30;99.90;;;;;;5034696;28;20453;-82
2022/11/27 01:12:53;;;;;;;0.30;0.30;;;6.20;99.90;;;;;;5027786;28;20478;-83
2022/11/27 01:15:18;;;;;;;0.30;0.30;;;6.20;99.90;;;;;;5037565;28;20184;-83
2022/11/27 01:17:44;;;;;;;0.20;0.20;;;6.30;99.90;;;;;;5025543;28;20334;-82
2022/11/27 01:20:10;;;;;;;0.30;0.30;;;6.20;99.90;;;;;;5027531;28;20198;-82
2022/11/27 01:22:35;;;;;;;0.30;0.30;;;6.20;99.90;;;;;;5023219;28;20223;-82
2022/11/27 01:25:01;;;;;;;0.20;0.20;;;6.20;99.90;;;;;;5024898;28;20781;-82
2022/11/27 01:27:26;;;;;;;0.20;0.20;;;6.20;99.90;;;;;;5016488;28;20244;-82
2022/11/27 01:29:52;;;;;;;0.20;0.20;;;6.20;99.90;;;;;;5027688;28;20560;-83
2022/11/27 01:32:17;;;;;;;0.30;0.30;;;6.20;99.90;;;;;;5025564;28;20274;-82
2022/11/27 01:34:42;;;;;;;0.20;0.20;;;6.20;99.90;;;;;;5033661;28;20247;-82
2022/11/27 01:37:08;;;;;;;0.20;0.20;;;6.20;99.90;;;;;;5040823;28;20633;-82
2022/11/27 01:39:34;;;;;;;0.20;0.20;;;6.20;99.90;;;;;;5040606;28;20183;-82
2022/11/27 01:41:59;;;;;;;0.20;0.20;;;6.20;99.90;;;;;;5033663;28;20593;-83
2022/11/27 01:44:25;;;;;;;0.23;0.23;;;6.20;99.90;;;;;;5034399;28;20190;-82
2022/11/27 01:46:51;;;;;;;0.20;0.20;;;6.30;99.90;;;;;;5033178;28;20191;-83
2022/11/27 01:49:49;;;;;;;0.20;0.20;;;6.30;99.90;;;;;;5028900;28;20183;-83
2022/11/27 01:52:28;;;;;;;0.20;0.20;;;6.20;99.90;;;;;;5007104;28;21097;-82
2022/11/27 01:54:59;;;;;;;0.20;0.20;;;6.20;99.90;;;;;;5039677;28;20473;-82
2022/11/27 01:57:34;;;;;;;0.20;0.20;;;6.20;99.90;;;;;;5027015;28;20535;-82
2022/11/27 02:00:01;;;;;;;0.20;0.20;;;6.20;99.90;;;;;;5015360;28;21017;-83
2022/11/27 02:02:27;;;;;;;0.20;0.20;;;6.20;99.90;;;;;;5028751;28;20595;-82
2022/11/27 02:04:53;;;;;;;0.20;0.20;;;6.20;99.90;;;;;;5034037;28;20941;-82
2022/11/27 02:07:19;;;;;;;0.23;0.23;;;6.20;99.90;;;;;;5031542;28;20440;-83
2022/11/27 02:09:45;;;;;;;0.20;0.20;;;6.20;99.90;;;;;;5019479;28;20442;-82
2022/11/27 02:12:27;;;;;;;0.20;0.20;;;6.20;99.90;;;;;;5024006;28;20235;-83
2022/11/27 02:15:07;;;;;;;0.30;0.30;;;6.20;99.90;;;;;;5025046;28;20184;-82
2022/11/27 02:17:46;;;;;;;0.30;0.30;;;6.20;99.90;;;;;;5042590;28;20479;-83
2022/11/27 02:20:31;;;;;;;0.30;0.30;;;6.20;99.90;;;;;;5001837;28;20445;-82
2022/11/27 02:23:34;;;;;;;0.20;0.20;;;6.20;99.90;;;;;;5016136;28;20838;-83
2022/11/27 02:26:18;;;;;;;0.30;0.30;;;6.10;99.90;;;;;;5020500;28;20512;-83
2022/11/27 02:29:10;;;;;;;0.30;0.30;;;6.10;99.90;;;;;;5024022;28;20444;-82
2022/11/27 02:32:05;;;;;;;0.20;0.20;;;6.20;99.90;;;;;;5038706;28;21042;-83
2022/11/27 02:34:49;;;;;;;0.30;0.30;;;6.20;99.90;;;;;;5029329;28;20519;-82
2022/11/27 02:37:45;;;;;;;0.20;0.20;;;6.20;99.90;;;;;;5014034;28;20493;-83
2022/11/27 02:40:30;;;;;;;0.20;0.20;;;6.20;99.90;;;;;;5024802;28;20824;-83
2022/11/27 02:43:15;;;;;;;0.20;0.20;;;6.10;99.90;;;;;;5028221;28;20477;-82
2022/11/27 02:45:45;;;;;;;0.30;0.30;;;6.10;99.90;;;;;;5031639;28;20477;-83
2022/11/27 02:48:13;;;;;;;0.20;0.20;;;6.10;99.90;;;;;;5024309;28;20458;-83
2022/11/27 02:50:41;;;;;;;0.30;0.30;;;6.10;99.90;;;;;;5036525;28;20446;-83
2022/11/27 02:53:14;;;;;;;0.20;0.20;;;6.10;99.90;;;;;;5023855;28;20452;-83
2022/11/27 02:55:41;;;;;;;0.23;0.23;;;6.00;99.90;;;;;;5036560;28;20438;-82
2022/11/27 02:58:12;;;;;;;0.20;0.20;;;6.10;99.90;;;;;;5018513;28;20548;-83
2022/11/27 03:00:40;;;;;;;0.20;0.20;;;6.10;99.90;;;;;;5030321;28;20442;-83
2022/11/27 03:03:11;;;;;;;0.20;0.20;;;6.00;99.90;;;;;;5032151;28;20466;-83
2022/11/27 03:05:41;;;;;;;0.23;0.23;;;6.10;99.90;;;;;;5035664;28;20442;-83
2022/11/27 03:08:17;;;;;;;0.20;0.20;;;6.00;99.90;;;;;;5044699;28;20479;-83
2022/11/27 03:10:50;;;;;;;0.30;0.30;;;6.00;99.90;;;;;;5030530;28;20548;-83
2022/11/27 03:13:16;;;;;;;0.30;0.30;;;6.00;99.90;;;;;;5030381;28;20535;-82
2022/11/27 03:16:02;;;;;;;0.20;0.20;;;6.00;99.90;;;;;;5019669;28;20453;-83
2022/11/27 03:19:06;;;;;;;0.30;0.30;;;5.90;99.90;;;;;;5039688;28;20510;-82
2022/11/27 03:21:41;;;;;;;0.20;0.20;;;5.90;99.90;;;;;;5013007;28;20449;-83
2022/11/27 03:24:08;;;;;;;0.30;0.30;;;5.90;99.90;;;;;;5028157;28;20923;-82
2022/11/27 03:26:34;;;;;;;0.30;0.30;;;5.80;99.90;;;;;;5032021;28;20442;-82
2022/11/27 03:29:02;;;;;;;0.30;0.30;;;5.80;99.90;;;;;;5027630;28;21136;-82
2022/11/27 03:31:29;;;;;;;0.20;0.20;;;5.70;99.90;;;;;;5030294;28;20452;-82
2022/11/27 03:33:55;;;;;;;0.30;0.30;;;5.70;99.90;;;;;;5027269;28;21272;-83
2022/11/27 03:36:21;;;;;;;0.30;0.30;;;5.70;99.90;;;;;;5012177;28;20553;-82
2022/11/27 03:38:49;;;;;;;0.30;0.30;;;5.60;99.90;;;;;;5027153;28;20469;-83
2022/11/27 03:41:25;;;;;;;0.30;0.30;;;5.50;99.90;;;;;;5027692;28;20430;-83
2022/11/27 03:44:30;;;;;;;0.30;0.30;;;5.50;99.90;;;;;;5034100;28;20516;-83
2022/11/27 03:47:02;;;;;;;0.30;0.30;;;5.50;99.90;;;;;;5011808;28;21562;-83
2022/11/27 03:49:43;;;;;;;0.30;0.30;;;5.40;99.90;;;;;;5018856;28;20434;-83
2022/11/27 03:52:29;;;;;;;0.30;0.30;;;5.40;99.90;;;;;;5019279;28;21129;-83
2022/11/27 03:55:05;;;;;;;0.30;0.30;;;5.30;99.90;;;;;;5020566;28;20434;-83
2022/11/27 03:57:40;;;;;;;0.30;0.30;;;5.30;99.90;;;;;;5033395;28;21077;-83
2022/11/27 04:00:08;;;;;;;0.30;0.30;;;5.20;99.90;;;;;;5029986;28;20942;-83
2022/11/27 04:03:00;;;;;;;0.30;0.30;;;5.10;99.90;;;;;;5026972;28;20442;-83
2022/11/27 04:05:26;;;;;;;0.30;0.30;;;5.10;99.90;;;;;;5010646;28;20516;-83
2022/11/27 04:07:51;;;;;;;0.20;0.20;;;5.10;99.90;;;;;;5015069;28;20438;-83
2022/11/27 04:10:17;;;;;;;0.30;0.30;;;5.00;99.90;;;;;;5028923;28;20192;-83
2022/11/27 04:12:42;;;;;;;0.30;0.30;;;5.00;99.90;;;;;;5029839;28;20249;-83
2022/11/27 04:15:08;;;;;;;0.30;0.30;;;5.00;99.90;;;;;;5020395;28;20278;-82
2022/11/27 04:17:34;;;;;;;0.20;0.20;;;5.00;99.90;;;;;;5026038;28;20258;-84
2022/11/27 04:19:59;;;;;;;0.30;0.30;;;4.90;99.90;;;;;;5029924;28;20470;-82
2022/11/27 04:22:25;;;;;;;0.20;0.20;;;4.90;99.90;;;;;;5031821;28;20660;-83
2022/11/27 04:24:51;;;;;;;0.30;0.30;;;4.80;99.90;;;;;;5026821;28;20191;-83
2022/11/27 04:27:16;;;;;;;0.30;0.30;;;4.80;99.90;;;;;;5027669;28;20645;-83
2022/11/27 04:29:42;;;;;;;0.30;0.30;;;4.80;99.90;;;;;;5030154;28;20196;-83
2022/11/27 04:32:08;;;;;;;0.30;0.30;;;4.70;99.90;;;;;;5017827;28;20187;-83
2022/11/27 04:34:33;;;;;;;0.30;0.30;;;4.80;99.90;;;;;;5026775;28;20445;-82
2022/11/27 04:36:59;;;;;;;0.30;0.30;;;4.80;99.90;;;;;;5030343;28;20254;-83
2022/11/27 04:39:25;;;;;;;0.30;0.30;;;4.80;99.90;;;;;;5026370;28;20183;-83
2022/11/27 04:41:50;;;;;;;0.30;0.30;;;4.70;99.90;;;;;;5029843;28;20199;-83
2022/11/27 04:44:16;;;;;;;0.30;0.30;;;4.70;99.90;;;;;;5033790;28;20458;-82
2022/11/27 04:46:42;;;;;;;0.30;0.30;;;4.70;99.90;;;;;;5010668;28;20250;-83
2022/11/27 04:49:09;;;;;;;0.30;0.30;;;4.70;99.90;;;;;;5027080;28;20453;-83
2022/11/27 04:51:34;;;;;;;0.30;0.30;;;4.70;99.90;;;;;;5033702;28;20194;-83
2022/11/27 04:54:00;;;;;;;0.30;0.30;;;4.70;99.90;;;;;;5027022;28;20461;-83
2022/11/27 04:56:25;;;;;;;0.30;0.30;;;4.60;99.90;;;;;;5009810;28;20273;-83
2022/11/27 04:58:51;;;;;;;0.30;0.30;;;4.70;99.90;;;;;;5028780;28;20227;-83
2022/11/27 05:01:16;;;;;;;0.30;0.30;;;4.60;99.90;;;;;;5022054;28;20234;-83
2022/11/27 05:03:42;;;;;;;0.30;0.30;;;4.60;99.90;;;;;;5024697;28;20193;-83
2022/11/27 05:06:07;;;;;;;0.30;0.30;;;4.60;99.90;;;;;;5044657;28;20183;-83
2022/11/27 05:08:33;;;;;;;0.30;0.30;;;4.60;99.90;;;;;;5039474;28;20686;-84
2022/11/27 05:10:59;;;;;;;0.30;0.30;;;4.60;99.90;;;;;;5027097;28;20183;-83
2022/11/27 05:13:24;;;;;;;0.30;0.30;;;4.60;99.90;;;;;;5027949;28;20235;-83
2022/11/27 05:15:50;;;;;;;0.30;0.30;;;4.50;99.90;;;;;;5013988;28;20195;-83
2022/11/27 05:18:15;;;;;;;0.30;0.30;;;4.50;99.90;;;;;;5047325;28;20225;-83
2022/11/27 05:20:41;;;;;;;0.30;0.30;;;4.50;99.90;;;;;;5030622;28;20282;-83
2022/11/27 05:23:06;;;;;;;0.20;0.20;;;4.50;99.90;;;;;;5030122;28;20205;-83
2022/11/27 05:25:32;;;;;;;0.27;0.27;;;4.50;99.90;;;;;;5032643;28;20278;-83
2022/11/27 05:27:57;;;;;;;0.30;0.30;;;4.50;99.90;;;;;;5025601;28;20183;-83
2022/11/27 05:30:22;;;;;;;0.30;0.30;;;4.50;99.90;;;;;;5025043;28;20690;-83
2022/11/27 05:32:48;;;;;;;0.30;0.30;;;4.50;99.90;;;;;;5019541;28;20187;-83
2022/11/27 05:35:14;;;;;;;0.30;0.30;;;4.50;99.90;;;;;;5037231;28;20199;-83
2022/11/27 05:37:39;;;;;;;0.30;0.30;;;4.40;99.90;;;;;;5027454;28;20254;-83
2022/11/27 05:40:05;;;;;;;0.30;0.30;;;4.40;99.90;;;;;;5026547;28;20237;-82
2022/11/27 05:42:31;;;;;;;0.30;0.30;;;4.30;99.90;;;;;;5026055;28;20225;-83
2022/11/27 05:44:56;;;;;;;0.30;0.30;;;4.30;99.90;;;;;;5038367;28;20945;-83
2022/11/27 05:47:22;;;;;;;0.30;0.30;;;4.30;99.90;;;;;;5045575;28;20206;-83
2022/11/27 05:49:47;;;;;;;0.30;0.30;;;4.40;99.90;;;;;;5024396;28;20191;-82
2022/11/27 05:52:13;;;;;;;0.30;0.30;;;4.30;99.90;;;;;;5019384;28;20199;-83
2022/11/27 05:54:38;;;;;;;0.40;0.40;;;4.30;99.90;;;;;;5016469;28;20184;-83
2022/11/27 05:57:04;;;;;;;0.30;0.30;;;4.30;99.90;;;;;;5026706;28;20215;-83
2022/11/27 05:59:29;;;;;;;0.30;0.30;;;4.30;99.90;;;;;;5015869;28;20187;-83
2022/11/27 06:01:55;;;;;;;0.33;0.33;;;4.30;99.90;;;;;;5025741;28;20183;-82
2022/11/27 06:04:20;;;;;;;0.30;0.30;;;4.30;99.90;;;;;;5030737;28;20274;-83
2022/11/27 06:06:46;;;;;;;0.30;0.30;;;4.30;99.90;;;;;;5039144;28;20195;-84
2022/11/27 06:09:12;;;;;;;0.40;0.40;;;4.30;99.90;;;;;;5012869;28;20191;-83
2022/11/27 06:11:37;;;;;;;0.40;0.40;;;4.30;99.90;;;;;;5032446;28;20223;-83
2022/11/27 06:14:05;;;;;;;0.40;0.40;;;4.30;99.90;;;;;;5033460;28;20456;-84
2022/11/27 06:16:31;;;;;;;0.30;0.30;;;4.30;99.90;;;;;;5029348;28;20300;-83
2022/11/27 06:18:56;;;;;;;0.30;0.30;;;4.30;99.90;;;;;;5032801;28;20446;-83
2022/11/27 06:21:23;;;;;;;0.40;0.40;;;4.30;99.90;;;;;;5015261;28;20199;-83
2022/11/27 06:23:54;;;;;;;0.30;0.30;;;4.20;99.90;;;;;;5031444;28;20203;-83
2022/11/27 06:26:25;;;;;;;0.40;0.40;;;4.20;99.90;;;;;;5030728;28;20817;-84
2022/11/27 06:28:52;;;;;;;0.30;0.30;;;4.20;99.90;;;;;;5027849;28;20496;-82
2022/11/27 06:31:24;;;;;;;0.40;0.40;;;4.20;99.90;;;;;;5030234;28;20464;-83
2022/11/27 06:33:51;;;;;;;0.30;0.30;;;4.10;99.90;;;;;;5027768;28;20452;-84
2022/11/27 06:36:17;;;;;;;0.23;0.23;;;4.00;99.90;;;;;;5026707;28;20504;-83
2022/11/27 06:38:43;;;;;;;0.30;0.30;;;4.10;99.90;;;;;;5030047;28;20913;-83
2022/11/27 06:41:13;;;;;;;0.33;0.33;;;4.00;99.90;;;;;;5027086;28;20770;-84
2022/11/27 06:43:38;;;;;;;0.40;0.40;;;4.00;99.90;;;;;;5014158;28;20957;-84
2022/11/27 06:46:06;;;;;;;0.40;0.40;;;3.90;99.90;;;;;;5015139;28;20446;-84
2022/11/27 06:48:33;;;;;;;0.30;0.30;;;4.00;99.90;;;;;;5031361;28;20818;-83
2022/11/27 06:51:00;;;;;;;0.30;0.30;;;3.90;99.90;;;;;;5030093;28;20445;-83
2022/11/27 06:53:27;;;;;;;0.30;0.30;;;3.90;99.90;;;;;;5030316;28;20450;-82
2022/11/27 06:55:52;;;;;;;0.40;0.40;;;3.80;99.90;;;;;;5028040;28;20962;-82
2022/11/27 06:58:18;;;;;;;0.40;0.40;;;3.80;99.90;;;;;;5027808;28;20489;-83
2022/11/27 07:00:43;;;;;;;0.40;0.40;;;3.80;99.90;;;;;;5010252;28;20277;-84
2022/11/27 07:03:09;;;;;;;0.40;0.40;;;3.80;99.90;;;;;;5029592;28;20195;-83
2022/11/27 07:05:35;;;;;;;0.30;0.30;;;3.80;99.90;;;;;;5031577;28;20215;-82
2022/11/27 07:08:01;;;;;;;0.30;0.30;;;3.80;99.90;;;;;;5028047;28;20198;-82
2022/11/27 07:10:26;;;;;;;0.30;0.30;;;3.70;99.90;;;;;;5022387;28;20446;-82
2022/11/27 07:12:52;;;;;;;0.40;0.40;;;3.70;99.90;;;;;;5026759;28;20330;-83
2022/11/27 07:15:17;;;;;;;0.40;0.40;;;3.80;99.90;;;;;;5029988;28;20254;-82
2022/11/27 07:17:43;;;;;;;0.30;0.30;;;3.70;99.90;;;;;;5012115;28;20218;-83
2022/11/27 07:20:08;;;;;;;0.30;0.30;;;3.70;99.90;;;;;;5022807;28;20233;-83
2022/11/27 07:22:34;;;;;;;0.30;0.30;;;3.70;99.90;;;;;;5003251;28;20196;-83
2022/11/27 07:24:59;;;;;;;0.30;0.30;;;3.70;99.90;;;;;;5027213;28;20438;-83
2022/11/27 07:27:25;;;;;;;0.40;0.40;;;3.70;99.90;;;;;;5025241;28;20677;-85
2022/11/27 07:29:51;;;;;;;0.30;0.30;;;3.80;99.90;;;;;;5006701;28;20180;-85
2022/11/27 07:32:16;;;;;;;0.30;0.30;;;3.80;99.90;;;;;;5028700;28;20219;-86
2022/11/27 07:34:42;;;;;;;0.30;0.30;;;3.80;99.90;;;;;;5028750;28;20175;-85
2022/11/27 07:37:07;;;;;;;0.40;0.40;;;3.90;99.90;;;;;;5029077;28;20226;-87
2022/11/27 07:39:33;;;;;;;0.40;0.40;;;3.80;99.90;;;;;;5011149;28;20263;-87
2022/11/27 07:41:58;;;;;;;0.30;0.30;;;3.80;99.90;;;;;;5012189;28;20195;-84
2022/11/27 07:44:24;;;;;;;0.30;0.30;;;3.80;99.90;;;;;;5045786;28;20794;-84
2022/11/27 07:46:49;;;;;;;0.30;0.30;;;3.70;99.90;;;;;;5034757;28;20242;-83
2022/11/27 07:49:15;;;;;;;0.40;0.40;;;3.70;99.90;;;;;;5031713;28;20267;-85
2022/11/27 07:51:40;;;;;;;0.30;0.30;;;3.70;99.90;;;;;;5029615;28;20652;-85
2022/11/27 07:54:06;;;;;;;0.23;0.23;;;3.70;99.90;;;;;;5022780;28;20196;-84
2022/11/27 07:56:31;;;;;;;0.40;0.40;;;3.70;99.90;;;;;;5023801;28;20218;-87
2022/11/27 07:58:57;;;;;;;0.30;0.30;;;3.70;99.90;;;;;;5029562;28;20259;-87
2022/11/27 08:01:23;;;;;;;0.40;0.40;;;3.70;99.90;;;;;;5026317;28;20180;-86
2022/11/27 08:03:49;;;;;;;0.30;0.30;;;3.70;99.90;;;;;;5021361;28;20531;-88
2022/11/27 08:06:16;;;;;;;0.30;0.30;;;3.70;99.90;;;;;;5023357;28;20192;-88
2022/11/27 08:08:42;;;;;;;0.30;0.30;;;3.60;99.90;;;;;;5026103;28;20859;-88
2022/11/27 08:11:20;;;;;;;0.30;0.30;;;3.70;99.90;;;;;;5031206;28;20449;-87
2022/11/27 08:13:46;;;;;;;0.40;0.40;;;3.70;99.90;;;;;;5027404;28;20965;-88
2022/11/27 08:16:12;;;;;;;0.30;0.30;;;3.70;99.90;;;;;;5027629;28;20454;-88
2022/11/27 08:18:37;;;;;;;0.30;0.30;;;3.70;99.90;;;;;;5020766;28;20446;-88
2022/11/27 08:21:03;;;;;;;0.30;0.30;;;3.70;99.90;;;;;;5018824;28;20187;-88
2022/11/27 08:23:28;;;;;;;0.40;0.40;;;3.60;99.90;;;;;;5023135;28;20578;-87
2022/11/27 08:25:54;;;;;;;0.30;0.30;;;3.60;99.90;;;;;;5026177;28;20658;-88
2022/11/27 08:28:19;;;;;;;0.30;0.30;;;3.70;99.90;;;;;;5010605;28;20195;-87
2022/11/27 08:30:45;;;;;;;0.30;0.30;;;3.70;99.90;;;;;;5027823;28;20879;-87
2022/11/27 08:33:13;;;;;;;0.40;0.40;;;3.70;99.90;;;;;;5027768;28;20195;-87
2022/11/27 08:35:39;;;;;;;0.30;0.30;;;3.70;99.90;;;;;;5038630;28;20211;-87
2022/11/27 08:38:04;;;;;;;0.30;0.30;;;3.70;99.90;;;;;;5028017;28;20577;-88
2022/11/27 08:40:31;;;;;;;0.30;0.30;;;3.80;99.90;;;;;;5011202;28;20295;-88
2022/11/27 08:42:57;;;;;;;0.40;0.40;;;3.70;99.90;;;;;;5029264;28;20223;-88
2022/11/27 08:45:22;;;;;;;0.30;0.30;;;3.80;99.90;;;;;;5022057;28;21020;-88
2022/11/27 08:47:48;;;;;;;0.30;0.30;;;3.80;99.90;;;;;;5019512;28;20537;-87
2022/11/27 08:50:13;;;;;;;0.40;0.40;;;3.90;99.90;;;;;;5026326;28;20242;-86
2022/11/27 08:52:39;;;;;;;0.40;0.40;;;3.90;99.90;;;;;;5025418;28;20245;-87
2022/11/27 08:55:05;;;;;;;0.40;0.40;;;3.90;99.90;;;;;;5028443;28;20191;-87
2022/11/27 08:57:30;;;;;;;0.40;0.40;;;3.90;99.90;;;;;;5028035;28;20575;-86
2022/11/27 08:59:56;;;;;;;0.40;0.40;;;4.10;99.90;;;;;;5039676;28;20456;-86
2022/11/27 09:02:21;;;;;;;0.30;0.30;;;3.90;99.90;;;;;;5019860;28;20192;-87
2022/11/27 09:04:47;;;;;;;0.30;0.30;;;4.00;99.90;;;;;;5025587;28;20191;-86
2022/11/27 09:07:14;;;;;;;0.40;0.40;;;4.00;99.90;;;;;;5008747;28;20303;-85
2022/11/27 09:09:40;;;;;;;0.30;0.30;;;4.00;99.90;;;;;;5031428;28;20199;-85
2022/11/27 09:12:06;;;;;;;0.30;0.30;;;4.00;99.90;;;;;;5029645;28;20481;-86
2022/11/27 09:14:31;;;;;;;0.40;0.40;;;4.00;99.90;;;;;;5043576;28;20201;-86
2022/11/27 09:16:57;;;;;;;0.30;0.30;;;4.00;99.90;;;;;;5032424;28;20265;-86
2022/11/27 09:19:23;;;;;;;0.40;0.40;;;4.00;99.90;;;;;;5029432;28;20230;-86
2022/11/27 09:21:49;;;;;;;0.30;0.30;;;4.00;99.90;;;;;;5010757;28;20203;-87
2022/11/27 09:24:15;;;;;;;0.30;0.30;;;4.10;99.90;;;;;;5017636;28;20448;-86
2022/11/27 09:26:40;;;;;;;0.30;0.30;;;4.00;99.90;;;;;;5010377;28;20460;-87
2022/11/27 09:29:06;;;;;;;0.40;0.40;;;4.00;99.90;;;;;;5012601;28;20183;-86
2022/11/27 09:31:31;;;;;;;0.23;0.23;;;4.00;99.90;;;;;;5006919;28;20192;-86
2022/11/27 09:33:57;;;;;;;0.30;0.30;;;4.00;99.90;;;;;;5028035;28;20187;-85
2022/11/27 09:36:24;;;;;;;0.30;0.30;;;4.10;99.90;;;;;;5010366;28;20187;-87
2022/11/27 09:38:50;;;;;;;0.40;0.40;;;4.10;99.90;;;;;;5012102;28;21017;-86
2022/11/27 09:41:38;;;;;;;0.30;0.30;;;4.20;99.90;;;;;;5020844;28;20976;-86
2022/11/27 09:44:29;;;;;;;0.30;0.30;;;4.30;99.90;;;;;;5024801;28;20457;-85
2022/11/27 09:46:58;;;;;;;0.40;0.40;;;4.40;99.90;;;;;;5013542;28;20529;-85
2022/11/27 09:49:31;;;;;;;0.40;0.40;;;4.60;99.90;;;;;;5036984;28;20966;-86
2022/11/27 09:52:23;;;;;;;0.30;0.30;;;4.70;99.90;;;;;;5026543;28;20446;-86
2022/11/27 09:54:59;;;;;;;0.30;0.30;;;4.70;99.90;;;;;;5007288;28;20533;-87
2022/11/27 09:57:29;;;;;;;0.30;0.30;;;4.80;99.90;;;;;;5017854;28;20481;-86
2022/11/27 10:00:00;;;;;;;0.30;0.30;;;4.90;99.90;;;;;;5026855;28;20445;-86
2022/11/27 10:02:33;;;;;;;0.30;0.30;;;5.10;99.90;;;;;;5027070;28;20537;-86
2022/11/27 10:05:02;;;;;;;0.30;0.30;;;5.10;99.90;;;;;;5023853;28;20465;-87
2022/11/27 10:07:30;;;;;;;0.30;0.30;;;5.20;99.90;;;;;;5021392;28;21029;-85
2022/11/27 10:10:06;;;;;;;0.30;0.30;;;5.20;99.90;;;;;;5025859;28;20528;-87
2022/11/27 10:12:40;;;;;;;0.30;0.30;;;5.10;99.90;;;;;;5030062;28;20878;-86
2022/11/27 10:15:26;;;;;;;0.30;0.30;;;5.10;99.90;;;;;;4998507;28;20949;-86
2022/11/27 10:18:04;;;;;;;0.40;0.40;;;5.10;99.90;;;;;;5021658;28;20528;-86
2022/11/27 10:20:49;;;;;;;0.30;0.30;;;5.20;99.90;;;;;;5009233;28;20460;-84
2022/11/27 10:23:41;;;;;;;0.30;0.30;;;5.40;99.90;;;;;;5019887;28;20945;-84
2022/11/27 10:26:17;;;;;;;0.30;0.30;;;5.60;99.90;;;;;;5026512;28;20458;-84
2022/11/27 10:29:17;;;;;;;0.30;0.30;;;5.80;99.90;;;;;;5004179;28;20477;-84
2022/11/27 10:31:48;;;;;;;0.30;0.30;;;5.80;99.90;;;;;;5019634;28;20792;-85
2022/11/27 10:34:17;;;;;;;0.27;0.27;;;5.60;99.90;;;;;;5017491;28;20930;-85
2022/11/27 10:36:47;;;;;;;0.30;0.30;;;5.40;99.90;;;;;;5024491;28;20470;-85
2022/11/27 10:39:18;;;;;;;0.30;0.30;;;5.30;99.90;;;;;;5023061;28;20462;-84
2022/11/27 10:41:53;;;;;;;0.30;0.30;;;5.40;99.90;;;;;;5019841;28;20521;-84
2022/11/27 10:44:31;;;;;;;0.30;0.30;;;5.40;99.90;;;;;;5028867;28;20457;-85
2022/11/27 10:47:19;;;;;;;0.30;0.30;;;5.40;99.90;;;;;;5028670;28;20452;-84
2022/11/27 10:49:46;;;;;;;0.30;0.30;;;5.30;99.90;;;;;;5026795;28;20444;-85
2022/11/27 10:52:13;;;;;;;0.30;0.30;;;5.30;99.90;;;;;;5026872;28;20527;-84
2022/11/27 10:54:40;;;;;;;0.30;0.30;;;5.30;99.90;;;;;;5025388;28;20504;-84
2022/11/27 10:57:34;;;;;;;0.30;0.30;;;5.40;99.90;;;;;;5035758;28;20482;-84
2022/11/27 11:00:04;;;;;;;0.30;0.30;;;5.40;99.90;;;;;;5019168;28;20445;-84
2022/11/27 11:02:36;;;;;;;0.30;0.30;;;5.40;99.90;;;;;;4994570;28;20447;-87
2022/11/27 11:05:24;;;;;;;0.30;0.30;;;5.40;99.90;;;;;;5024589;28;20456;-85
2022/11/27 11:08:03;;;;;;;0.30;0.30;;;5.50;99.90;;;;;;4999069;28;21318;-85
2022/11/27 11:10:52;;;;;;;0.23;0.23;;;5.50;99.90;;;;;;5030351;28;20554;-85
2022/11/27 11:13:28;;;;;;;0.30;0.30;;;5.60;99.90;;;;;;5015461;28;21188;-84
2022/11/27 11:16:10;;;;;;;0.30;0.30;;;5.60;99.90;;;;;;5025193;28;20437;-84
2022/11/27 11:18:45;;;;;;;0.30;0.30;;;5.60;99.90;;;;;;5029087;28;21036;-85
2022/11/27 11:21:32;;;;;;;0.30;0.30;;;5.50;99.90;;;;;;5022652;28;20441;-83
2022/11/27 11:24:18;;;;;;;0.30;0.30;;;5.50;99.90;;;;;;5025152;28;20453;-84
2022/11/27 11:26:50;;;;;;;0.30;0.30;;;5.60;99.90;;;;;;5024109;28;20453;-84
2022/11/27 11:29:26;;;;;;;0.30;0.30;;;5.50;99.90;;;;;;5018497;28;20499;-83
2022/11/27 11:31:53;;;;;;;0.30;0.30;;;5.50;99.90;;;;;;5027139;28;21014;-83
2022/11/27 11:34:25;;;;;;;0.30;0.30;;;5.60;99.90;;;;;;5028414;28;20470;-83
2022/11/27 11:36:54;;;;;;;0.30;0.30;;;5.60;99.90;;;;;;5026296;28;20508;-89
2022/11/27 11:39:24;;;;;;;0.30;0.30;;;5.60;99.90;;;;;;5026712;28;20722;-88
2022/11/27 11:41:50;;;;;;;0.30;0.30;;;5.60;99.90;;;;;;5007526;28;20896;-86
2022/11/27 11:44:24;;;;;;;0.30;0.30;;;5.50;99.90;;;;;;5010232;28;20500;-86
2022/11/27 11:46:52;;;;;;;0.30;0.30;;;5.40;99.90;;;;;;5015601;28;20228;-85
2022/11/27 11:49:26;;;;;;;0.30;0.30;;;5.40;99.90;;;;;;5026963;28;20454;-85
2022/11/27 11:51:51;;;;;;;0.30;0.30;;;5.50;99.90;;;;;;5027025;28;20446;-87
2022/11/27 11:54:36;;;;;;;0.30;0.30;;;5.40;99.90;;;;;;5022653;28;20501;-90
2022/11/27 11:57:05;;;;;;;0.30;0.30;;;5.40;99.90;;;;;;5005599;28;20223;-88
2022/11/27 11:59:58;;;;;;;0.30;0.30;;;5.40;99.90;;;;;;5029739;28;20528;-89
2022/11/27 12:02:50;;;;;;;0.30;0.30;;;5.50;99.90;;;;;;5028637;28;20443;-88
2022/11/27 12:05:56;;;;;;;0.30;0.30;;;5.50;99.90;;;;;;5028773;28;20473;-89
2022/11/27 12:08:27;;;;;;;0.30;0.30;;;5.50;99.90;;;;;;5014317;28;20450;-89
2022/11/27 12:11:15;;;;;;;0.30;0.30;;;5.50;99.90;;;;;;5029339;28;20450;-89
2022/11/27 12:14:17;;;;;;;0.30;0.30;;;5.50;99.90;;;;;;5027748;28;20953;-89
2022/11/27 12:17:08;;;;;;;0.40;0.40;;;5.50;99.90;;;;;;5025237;28;20987;-89
2022/11/27 12:20:12;;;;;;;0.30;0.30;;;5.50;99.90;;;;;;5028442;28;20446;-88
2022/11/27 12:22:47;;;;;;;0.30;0.30;;;5.50;99.90;;;;;;5027240;28;20958;-88
2022/11/27 12:25:35;;;;;;;0.30;0.30;;;5.60;99.90;;;;;;5017303;28;20470;-90
2022/11/27 12:28:07;;;;;;;0.33;0.33;;;5.60;99.90;;;;;;4999950;28;20825;-89
2022/11/27 12:31:03;;;;;;;0.30;0.30;;;5.60;99.90;;;;;;5019821;28;20439;-89
2022/11/27 12:33:54;;;;;;;0.40;0.40;;;5.60;99.90;;;;;;5021856;28;20787;-88
2022/11/27 12:36:53;;;;;;;0.30;0.30;;;5.50;99.90;;;;;;5025846;28;20496;-88
2022/11/27 12:39:25;;;;;;;0.40;0.40;;;5.50;99.90;;;;;;5018490;28;20493;-90
2022/11/27 12:42:14;;;;;;;0.30;0.30;;;5.50;99.90;;;;;;5028591;28;20906;-93
2022/11/27 12:45:13;;;;;;;0.30;0.30;;;5.50;99.90;;;;;;5027734;28;20446;-90
2022/11/27 12:47:42;;;;;;;0.30;0.30;;;5.50;99.90;;;;;;5017632;28;20470;-90
2022/11/27 12:50:19;;;;;;;0.23;0.23;;;5.50;99.90;;;;;;5017603;28;20434;-91
2022/11/27 12:52:55;;;;;;;0.30;0.30;;;5.50;99.90;;;;;;5028957;28;21429;-91
2022/11/27 12:55:25;;;;;;;0.30;0.30;;;5.50;99.90;;;;;;5024207;28;20533;-89
2022/11/27 12:58:02;;;;;;;0.20;0.20;;;5.50;99.90;;;;;;5026282;28;20568;-88
2022/11/27 13:00:30;;;;;;;0.30;0.30;;;5.50;99.90;;;;;;5029257;28;20460;-88
2022/11/27 13:03:10;;;;;;;0.30;0.30;;;5.40;99.90;;;;;;5008915;28;20450;-88
2022/11/27 13:05:41;;;;;;;0.30;0.30;;;5.40;99.90;;;;;;5012445;28;20439;-91
2022/11/27 13:08:15;;;;;;;0.30;0.30;;;5.40;99.90;;;;;;5015354;28;20454;-89
2022/11/27 13:11:06;;;;;;;0.30;0.30;;;5.40;99.90;;;;;;5029433;28;20442;-90
2022/11/27 13:13:43;;;;;;;0.30;0.30;;;5.40;99.90;;;;;;5029378;28;20470;-90
2022/11/27 13:16:22;;;;;;;0.30;0.30;;;5.40;99.90;;;;;;5003199;28;20497;-89
2022/11/27 13:18:53;;;;;;;0.30;0.30;;;5.40;99.90;;;;;;5021038;28;20482;-91